Terminal Aerodrome Forecast
Issued by NWS Wilmington, OH

Current Version | Previous Version | Text Only | Print | Product List | Glossary Off
Versions: 1 2 3 4 5 6 7 8 9 10 11 12 13 14

463
FTUS41 KILN 221128
TAFDAY
TAF
KDAY 221128Z 2212/2312 02014KT P6SM SKC
     FM221800 04010KT P6SM SKC
     FM230000 05006KT P6SM SCT250
     FM230600 09006KT P6SM SCT250=

USA.gov is the U.S. government's official web portal to all federal, state and local government web resources and services.